首页
METAR-TAF:

METAR-TAF

机场 :

奥古斯塔, 喬治亞, 美国

纬度: 33-21-52N, 经度: 081-57-48W, 海拔: 44米

当前天气观测

该预报发布于52分钟前的10:53 UTC
风速6节,风向西转西南
温度 13°C
湿度 94%
气压 1016 hPa
能見度: 16.1公里
阴天层高于2500英尺

METAR: KAGS 191053Z AUTO 25006KT 10SM OVC025 13/12 A3000 RMK AO2 RAB0958E12B34E46 SLP157 P0000 T01330117 $

时间: 06:45 (11:45 UTC)

预报

该预报发布于22分钟前的11:23 UTC
预报有效从19日的 11点(UTC)到 20日的 06点(UTC)
风速8节,风向西转西南
能見度: 10公里
多云层高于1500英尺
阴天层高于3500英尺
短暂存在
从 19日的 11点(UTC)到 19日的 12点(UTC)
能見度: 6.4公里
多云层高于400英尺
轻雾
从 19日的 1200点(UTC)
风速9节,风向西转西北,有时为18节阵风
能見度: 10公里
散云层高于3000英尺
多云层高于6000英尺
从 19日的 2000点(UTC)
风速8节,风向西转西北
能見度: 10公里
天空无云

TAF: KAGS 191123Z 1911/2006 25008KT P6SM BKN015 OVC035 WS020/20038KT TEMPO 1911/1912 4SM BR BKN004 FM191200 29009G18KT P6SM SCT030 BKN060 FM192000 30008KT P6SM SKC

超过4000个机场的气象观测和天气预报(METAR&TAF报告)。

可查询的气象台以黄色和红色小点在地图上表示。

将鼠标移到小点上方,可查看气象台名称。

然后点击查看天气观测和预报。

如需切换地图:点击带黑十字的绿色按钮放大地图;点击带横线的绿色按钮缩小地图;或者点击绿色箭头查看邻近地区的地图。


METAR-TAF: